Time;durP1;ratioP1;P1;durP2;ratioP2;P2;SDS_P1;SDS_P2;PMS_P1;PMS_P2;Temp;Humidity;BMP_temperature;BMP_pressure;BME280_temperature;BME280_humidity;BME280_pressure;Samples;Min_cycle;Max_cycle;Signal;HPM_P1;HPM_P2
2022/02/11 00:08:14;;;;;;;;;;;22.20;99.90;;;;;;5075491;28;19970;-75
2022/02/11 00:10:44;;;;;;;;;;;22.10;99.90;;;;;;5075486;28;19909;-75
2022/02/11 00:13:10;;;;;;;;;;;21.90;99.90;;;;;;5075157;28;19959;-73
2022/02/11 00:15:43;;;;;;;;;;;21.70;99.90;;;;;;5075135;28;19954;-74
2022/02/11 00:18:15;;;;;;;;;;;21.50;99.90;;;;;;5074982;28;19915;-75
2022/02/11 00:20:44;;;;;;;;;;;21.40;99.90;;;;;;5075229;28;19915;-75
2022/02/11 00:23:11;;;;;;;;;;;21.40;99.90;;;;;;5075301;28;19908;-75
2022/02/11 00:25:41;;;;;;;;;;;21.30;99.90;;;;;;5074741;28;19916;-75
2022/02/11 00:33:51;;;;;;;;;;;21.30;99.90;;;;;;5074757;28;19920;-74
2022/02/11 00:36:21;;;;;;;;;;;21.10;99.90;;;;;;5074696;28;20033;-74
2022/02/11 00:39:12;;;;;;;;;;;21.10;99.90;;;;;;5074501;28;20008;-74
2022/02/11 01:04:00;;;;;;;;;;;21.00;99.90;;;;;;5073218;28;20045;-75
2022/02/11 01:06:28;;;;;;;;;;;21.10;99.90;;;;;;5074226;28;19908;-74
2022/02/11 01:08:55;;;;;;;;;;;21.10;99.90;;;;;;5073859;28;20015;-75
2022/02/11 01:11:58;;;;;;;;;;;21.00;99.90;;;;;;5073526;28;19916;-74
2022/02/11 01:14:14;;;;;;;;;;;21.00;99.90;;;;;;5072433;28;20382;-74
2022/02/11 01:16:47;;;;;;;;;;;21.00;99.90;;;;;;5072107;28;19912;-76
2022/02/11 01:19:29;;;;;;;;;;;21.10;99.90;;;;;;5073732;28;19909;-76
2022/02/11 01:22:26;;;;;;;;;;;21.10;99.90;;;;;;5073559;28;19940;-75
2022/02/11 01:25:18;;;;;;;;;;;20.90;99.90;;;;;;5075903;28;19932;-75
2022/02/11 01:41:36;;;;;;;;;;;21.00;99.90;;;;;;5073497;28;19909;-75
2022/02/11 01:44:04;;;;;;;;;;;21.00;99.90;;;;;;5073465;28;19916;-76
2022/02/11 01:49:36;;;;;;;;;;;21.00;99.90;;;;;;5073496;28;19970;-75
2022/02/11 01:55:13;;;;;;;;;;;20.80;99.90;;;;;;5073173;28;19995;-75
2022/02/11 02:05:54;;;;;;;;;;;20.40;99.90;;;;;;5073008;28;19989;-75
2022/02/11 02:29:47;;;;;;;;;;;20.30;99.90;;;;;;5073810;28;20529;-74
2022/02/11 02:50:18;;;;;;;;;;;20.70;99.90;;;;;;5092332;28;19927;-76
2022/02/11 02:58:26;;;;;;;;;;;20.70;99.90;;;;;;5092805;28;20053;-74
2022/02/11 03:01:11;;;;;;;;;;;20.70;99.90;;;;;;5092916;28;19920;-73
2022/02/11 04:55:06;;;;;;;;;;;22.00;99.90;;;;;;5115229;28;20003;-74
2022/02/11 05:00:18;;;;;;;;;;;21.70;99.90;;;;;;5115007;28;20423;-73
2022/02/11 05:02:46;;;;;;;;;;;21.60;99.90;;;;;;5114749;28;20342;-74
2022/02/11 05:05:16;;;;;;;;;;;21.50;99.90;;;;;;5114845;28;19969;-75
2022/02/11 05:07:43;;;;;;;;;;;21.70;99.90;;;;;;5114919;28;20221;-74
2022/02/11 05:10:10;;;;;;;;;;;21.70;99.90;;;;;;5114459;28;19926;-74
2022/02/11 05:12:37;;;;;;;;;;;21.70;99.90;;;;;;5114568;28;20354;-74
2022/02/11 05:15:09;;;;;;;;;;;21.80;99.90;;;;;;5114506;28;19908;-74
2022/02/11 05:17:36;;;;;;;;;;;21.80;99.90;;;;;;5114463;28;19915;-74
2022/02/11 05:20:04;;;;;;;;;;;21.90;99.90;;;;;;5114125;28;20007;-74
2022/02/11 05:22:30;;;;;;;;;;;22.00;99.90;;;;;;5114397;28;19915;-73
2022/02/11 05:24:57;;;;;;;;;;;22.10;99.90;;;;;;5114415;28;20329;-73
2022/02/11 05:27:24;;;;;;;;;;;22.10;99.90;;;;;;5114391;28;19908;-74
2022/02/11 05:29:51;;;;;;;;;;;22.20;99.90;;;;;;5114089;28;19923;-75
2022/02/11 05:32:17;;;;;;;;;;;22.00;99.90;;;;;;5114192;28;19908;-75
2022/02/11 05:34:44;;;;;;;;;;;21.80;99.90;;;;;;5114102;28;19907;-74
2022/02/11 05:37:11;;;;;;;;;;;21.30;99.90;;;;;;5113978;28;19908;-75
2022/02/11 05:39:38;;;;;;;;;;;21.10;99.90;;;;;;5112682;28;19912;-73
2022/02/11 05:42:05;;;;;;;;;;;20.80;99.90;;;;;;5113539;28;20338;-74
2022/02/11 05:44:31;;;;;;;;;;;20.70;99.90;;;;;;5114071;28;19958;-74
2022/02/11 05:46:58;;;;;;;;;;;20.80;99.90;;;;;;5114124;28;19911;-74
2022/02/11 05:49:25;;;;;;;;;;;20.90;99.90;;;;;;5113693;28;19942;-73
2022/02/11 05:51:51;;;;;;;;;;;21.00;99.90;;;;;;5110970;28;20564;-76
2022/02/11 05:54:18;;;;;;;;;;;21.10;99.90;;;;;;5111825;28;20354;-74
2022/02/11 05:56:44;;;;;;;;;;;21.10;99.90;;;;;;5111832;28;19908;-74
2022/02/11 05:59:11;;;;;;;;;;;21.10;99.90;;;;;;5111456;28;19919;-74
2022/02/11 06:01:38;;;;;;;;;;;21.10;99.90;;;;;;5111414;28;19912;-75
2022/02/11 06:04:04;;;;;;;;;;;21.20;99.90;;;;;;5110894;28;19919;-73
2022/02/11 06:06:31;;;;;;;;;;;21.20;99.90;;;;;;5111948;28;19943;-74
2022/02/11 06:08:58;;;;;;;;;;;21.40;99.90;;;;;;5111711;28;19969;-73
2022/02/11 06:11:29;;;;;;;;;;;21.70;99.90;;;;;;5111503;28;19907;-72
2022/02/11 06:13:59;;;;;;;;;;;21.70;99.90;;;;;;5111308;28;20366;-73
2022/02/11 06:16:25;;;;;;;;;;;21.60;99.90;;;;;;5111362;28;19950;-73
2022/02/11 06:18:52;;;;;;;;;;;21.60;99.90;;;;;;5111047;28;20461;-72
2022/02/11 06:21:19;;;;;;;;;;;21.60;99.90;;;;;;5111438;28;19914;-74
2022/02/11 06:23:46;;;;;;;;;;;21.60;99.90;;;;;;5111119;28;19907;-74
2022/02/11 06:26:12;;;;;;;;;;;21.30;99.90;;;;;;5110957;28;19934;-75
2022/02/11 06:28:39;;;;;;;;;;;20.90;99.90;;;;;;5110995;28;19939;-74
2022/02/11 06:31:05;;;;;;;;;;;20.70;99.90;;;;;;5110937;28;19990;-76
2022/02/11 06:33:32;;;;;;;;;;;20.80;99.90;;;;;;5111128;28;19961;-75
2022/02/11 06:35:59;;;;;;;;;;;20.70;99.90;;;;;;5110705;28;19912;-75
2022/02/11 06:38:26;;;;;;;;;;;20.70;99.90;;;;;;5110847;28;19912;-74
2022/02/11 06:40:53;;;;;;;;;;;20.70;99.90;;;;;;5110594;28;19919;-73
2022/02/11 06:43:19;;;;;;;;;;;20.70;99.90;;;;;;5110689;28;19908;-74
2022/02/11 06:45:46;;;;;;;;;;;20.80;99.90;;;;;;5110854;28;20355;-74
2022/02/11 06:48:16;;;;;;;;;;;20.80;99.90;;;;;;5110738;28;19965;-73
2022/02/11 06:50:45;;;;;;;;;;;20.90;99.90;;;;;;5109209;28;20002;-73
2022/02/11 06:53:13;;;;;;;;;;;21.00;99.90;;;;;;5110711;28;19911;-74
2022/02/11 06:55:40;;;;;;;;;;;21.10;99.90;;;;;;5110976;28;19908;-74
2022/02/11 06:58:07;;;;;;;;;;;21.20;99.90;;;;;;5110058;28;19962;-74
2022/02/11 07:00:34;;;;;;;;;;;21.10;99.90;;;;;;5110481;28;19924;-74
2022/02/11 07:03:01;;;;;;;;;;;21.20;99.90;;;;;;5114441;28;19959;-73
2022/02/11 07:05:27;;;;;;;;;;;21.20;99.90;;;;;;5114711;28;19915;-74
2022/02/11 07:07:54;;;;;;;;;;;21.20;99.90;;;;;;5114429;28;19908;-73
2022/02/11 07:10:21;;;;;;;;;;;21.20;99.90;;;;;;5112814;28;19916;-74
2022/02/11 07:12:49;;;;;;;;;;;21.20;99.90;;;;;;5114547;28;19919;-72
2022/02/11 07:15:15;;;;;;;;;;;21.30;99.90;;;;;;5114891;28;19914;-73
2022/02/11 07:17:42;;;;;;;;;;;21.40;99.90;;;;;;5114861;28;19994;-73
2022/02/11 07:20:11;;;;;;;;;;;21.50;99.90;;;;;;5114419;28;19923;-74
2022/02/11 07:22:38;;;;;;;;;;;21.70;99.90;;;;;;5099902;28;19959;-74
2022/02/11 07:25:06;;;;;;;;;;;21.80;99.90;;;;;;5073509;28;19908;-74
2022/02/11 07:27:32;;;;;;;;;;;22.00;99.90;;;;;;5073599;28;19919;-74
2022/02/11 07:29:59;;;;;;;;;;;22.00;99.90;;;;;;5073325;28;20371;-74
2022/02/11 07:32:26;;;;;;;;;;;22.10;99.90;;;;;;5073625;28;19908;-74
2022/02/11 07:34:53;;;;;;;;;;;22.10;99.90;;;;;;5072929;28;19990;-75
2022/02/11 07:37:19;;;;;;;;;;;22.10;99.90;;;;;;5073634;28;19962;-75
2022/02/11 07:39:46;;;;;;;;;;;22.10;99.90;;;;;;5073311;28;20324;-73
2022/02/11 07:42:13;;;;;;;;;;;22.10;99.90;;;;;;5073223;28;20327;-74
2022/02/11 07:44:40;;;;;;;;;;;22.10;99.90;;;;;;5073275;28;20514;-74
2022/02/11 07:47:07;;;;;;;;;;;22.10;99.90;;;;;;5073272;28;20024;-73
2022/02/11 07:49:35;;;;;;;;;;;22.10;99.90;;;;;;5072264;28;19921;-74
2022/02/11 07:52:02;;;;;;;;;;;22.10;99.90;;;;;;5073013;28;20170;-75
2022/02/11 07:54:30;;;;;;;;;;;22.10;99.90;;;;;;5072826;28;19955;-74
2022/02/11 07:56:57;;;;;;;;;;;22.00;99.90;;;;;;5073422;28;19956;-74
2022/02/11 07:59:23;;;;;;;;;;;22.10;99.90;;;;;;5073052;28;19974;-74
2022/02/11 08:01:50;;;;;;;;;;;22.10;99.90;;;;;;5072871;28;19958;-73
2022/02/11 08:04:17;;;;;;;;;;;22.10;99.90;;;;;;5072304;28;19908;-73
2022/02/11 08:06:44;;;;;;;;;;;22.10;99.90;;;;;;5075073;28;19912;-74
2022/02/11 08:09:10;;;;;;;;;;;22.10;99.90;;;;;;5075052;28;19922;-74
2022/02/11 08:11:37;;;;;;;;;;;22.10;99.90;;;;;;5075038;28;19915;-72
2022/02/11 08:14:04;;;;;;;;;;;22.10;99.90;;;;;;5074199;28;19915;-73
2022/02/11 08:16:30;;;;;;;;;;;22.10;99.90;;;;;;5074913;28;19909;-73
2022/02/11 08:18:58;;;;;;;;;;;22.00;99.90;;;;;;5074940;28;19915;-73
2022/02/11 08:21:24;;;;;;;;;;;22.00;99.90;;;;;;5074998;28;20007;-72
2022/02/11 08:23:51;;;;;;;;;;;22.00;99.90;;;;;;5074760;28;19962;-72
2022/02/11 08:26:18;;;;;;;;;;;22.00;99.90;;;;;;5074725;28;19917;-73
2022/02/11 08:28:45;;;;;;;;;;;22.00;99.90;;;;;;5074711;28;20004;-72
2022/02/11 08:31:12;;;;;;;;;;;22.00;99.90;;;;;;5074727;28;20003;-73
2022/02/11 08:33:39;;;;;;;;;;;22.00;99.90;;;;;;5074616;28;19909;-72
2022/02/11 08:36:05;;;;;;;;;;;22.00;99.90;;;;;;5074296;28;19908;-72
2022/02/11 08:38:32;;;;;;;;;;;22.00;99.90;;;;;;5085614;28;20416;-72
2022/02/11 08:41:00;;;;;;;;;;;22.00;99.90;;;;;;5074399;28;19950;-73
2022/02/11 08:43:27;;;;;;;;;;;22.00;99.90;;;;;;5074505;28;19915;-72
2022/02/11 08:45:54;;;;;;;;;;;22.00;99.90;;;;;;5074304;28;19914;-73
2022/02/11 08:48:20;;;;;;;;;;;22.00;99.90;;;;;;5074148;28;19960;-73
2022/02/11 08:50:47;;;;;;;;;;;22.00;99.90;;;;;;5074136;28;19917;-72
2022/02/11 08:53:15;;;;;;;;;;;22.00;99.90;;;;;;5074292;28;19967;-73
2022/02/11 08:55:42;;;;;;;;;;;22.00;99.90;;;;;;5072599;28;19918;-73
2022/02/11 08:58:09;;;;;;;;;;;22.00;99.90;;;;;;5073989;28;19991;-73
2022/02/11 09:00:35;;;;;;;;;;;21.90;99.90;;;;;;5074022;28;19928;-72
2022/02/11 09:03:02;;;;;;;;;;;21.90;99.90;;;;;;5073928;28;19932;-74
2022/02/11 09:05:29;;;;;;;;;;;21.90;99.90;;;;;;5072887;28;20277;-74
2022/02/11 09:07:57;;;;;;;;;;;21.80;99.90;;;;;;5073677;28;19954;-74
2022/02/11 09:10:26;;;;;;;;;;;21.60;99.90;;;;;;5073502;28;19917;-73
2022/02/11 09:12:53;;;;;;;;;;;21.50;99.90;;;;;;5073893;28;20315;-74
2022/02/11 09:15:21;;;;;;;;;;;21.30;99.90;;;;;;5073654;28;19915;-73
2022/02/11 09:17:51;;;;;;;;;;;21.10;99.90;;;;;;5073482;28;19919;-73
2022/02/11 09:20:18;;;;;;;;;;;21.00;99.90;;;;;;5073740;28;19913;-73
2022/02/11 09:22:45;;;;;;;;;;;21.10;99.90;;;;;;5073594;28;19923;-74
2022/02/11 09:25:13;;;;;;;;;;;21.00;99.90;;;;;;5072522;28;20363;-73
2022/02/11 09:27:45;;;;;;;;;;;21.00;99.90;;;;;;5073243;28;19987;-73
2022/02/11 09:30:15;;;;;;;;;;;21.10;99.90;;;;;;5073532;28;19920;-74
2022/02/11 09:32:45;;;;;;;;;;;21.20;99.90;;;;;;5073646;28;19920;-73
2022/02/11 09:35:12;;;;;;;;;;;21.20;99.90;;;;;;5073536;28;19982;-74
2022/02/11 09:37:39;;;;;;;;;;;21.30;99.90;;;;;;5073622;28;19908;-74
2022/02/11 09:40:07;;;;;;;;;;;21.30;99.90;;;;;;5073254;28;20404;-73
2022/02/11 09:42:34;;;;;;;;;;;21.40;99.90;;;;;;5073346;28;20364;-73
2022/02/11 09:45:00;;;;;;;;;;;21.40;99.90;;;;;;5073233;28;19936;-73
2022/02/11 09:47:27;;;;;;;;;;;21.40;99.90;;;;;;5073140;28;20262;-74
2022/02/11 09:49:54;;;;;;;;;;;21.40;99.90;;;;;;5072848;28;20025;-74
2022/02/11 09:52:20;;;;;;;;;;;21.40;99.90;;;;;;5073146;28;20313;-73
2022/02/11 09:54:47;;;;;;;;;;;21.50;99.90;;;;;;5072793;28;19908;-74
2022/02/11 09:57:19;;;;;;;;;;;21.50;99.90;;;;;;5073019;28;19923;-73
2022/02/11 09:59:46;;;;;;;;;;;21.50;99.90;;;;;;5073025;28;20355;-73
2022/02/11 10:02:16;;;;;;;;;;;21.50;99.90;;;;;;5073140;28;19908;-73
2022/02/11 10:04:54;;;;;;;;;;;21.50;99.90;;;;;;5073182;28;19916;-74
2022/02/11 10:07:20;;;;;;;;;;;21.50;99.90;;;;;;5072900;28;20413;-74
2022/02/11 10:09:48;;;;;;;;;;;21.50;99.90;;;;;;5072423;28;20015;-73
2022/02/11 10:12:15;;;;;;;;;;;21.50;99.90;;;;;;5073104;28;19908;-73
2022/02/11 10:14:43;;;;;;;;;;;21.60;99.90;;;;;;5072956;28;19990;-73
2022/02/11 10:17:16;;;;;;;;;;;21.50;99.90;;;;;;5072776;28;19916;-73
2022/02/11 10:19:49;;;;;;;;;;;21.50;99.90;;;;;;5072813;28;20355;-73
2022/02/11 10:22:17;;;;;;;;;;;21.50;99.90;;;;;;5072058;28;20079;-74
2022/02/11 10:24:45;;;;;;;;;;;21.60;99.90;;;;;;5071301;28;19912;-72
2022/02/11 10:27:21;;;;;;;;;;;21.60;99.90;;;;;;5070549;28;19913;-73
2022/02/11 10:29:48;;;;;;;;;;;21.60;99.90;;;;;;5070496;28;20392;-74
2022/02/11 10:32:15;;;;;;;;;;;21.60;99.90;;;;;;5070605;28;20115;-73
2022/02/11 10:34:49;;;;;;;;;;;21.60;99.90;;;;;;5070417;28;19967;-73
2022/02/11 10:37:16;;;;;;;;;;;21.60;99.90;;;;;;5069709;28;19918;-72
2022/02/11 10:39:43;;;;;;;;;;;21.60;99.90;;;;;;5070365;28;19912;-72
2022/02/11 10:42:13;;;;;;;;;;;21.60;99.90;;;;;;5070231;28;19958;-73
2022/02/11 10:44:41;;;;;;;;;;;21.70;99.90;;;;;;5070367;28;19916;-73
2022/02/11 10:47:10;;;;;;;;;;;21.70;99.90;;;;;;5068993;28;19967;-73
2022/02/11 10:49:46;;;;;;;;;;;21.70;99.90;;;;;;5070214;28;19978;-73
2022/02/11 10:52:13;;;;;;;;;;;21.70;99.90;;;;;;5069665;28;19999;-74
2022/02/11 10:54:41;;;;;;;;;;;21.70;99.90;;;;;;5070259;28;19915;-74
2022/02/11 10:57:10;;;;;;;;;;;21.80;99.90;;;;;;5070442;28;19961;-74
2022/02/11 10:59:41;;;;;;;;;;;21.70;99.90;;;;;;5070100;28;19920;-74
2022/02/11 11:02:17;;;;;;;;;;;21.80;99.90;;;;;;5070213;28;19908;-73
2022/02/11 11:04:48;;;;;;;;;;;21.80;99.90;;;;;;5070072;28;20651;-73
2022/02/11 11:07:30;;;;;;;;;;;21.80;99.90;;;;;;5069699;28;20271;-74
2022/02/11 11:09:57;;;;;;;;;;;21.90;99.90;;;;;;5069723;28;19946;-73
2022/02/11 11:12:25;;;;;;;;;;;21.90;99.90;;;;;;5070364;28;19913;-73
2022/02/11 11:14:54;;;;;;;;;;;21.80;99.90;;;;;;5070207;28;19916;-74
2022/02/11 11:17:21;;;;;;;;;;;21.80;99.90;;;;;;5069684;28;20377;-73
2022/02/11 11:19:50;;;;;;;;;;;21.80;99.90;;;;;;5070017;28;19965;-73
2022/02/11 11:22:19;;;;;;;;;;;21.80;99.90;;;;;;5069569;28;20003;-73
2022/02/11 11:24:48;;;;;;;;;;;21.80;99.90;;;;;;5069808;28;19940;-73
2022/02/11 11:27:50;;;;;;;;;;;21.80;99.90;;;;;;5070029;28;19958;-73
2022/02/11 11:30:21;;;;;;;;;;;21.90;99.90;;;;;;5047113;28;19924;-74
2022/02/11 11:33:06;;;;;;;;;;;21.90;99.90;;;;;;5065939;28;19915;-73
2022/02/11 11:35:41;;;;;;;;;;;21.90;99.90;;;;;;5070139;28;19908;-73
2022/02/11 11:38:14;;;;;;;;;;;22.00;99.90;;;;;;5069280;28;19919;-74
2022/02/11 11:40:41;;;;;;;;;;;22.00;99.90;;;;;;5070059;28;19908;-73
2022/02/11 11:43:12;;;;;;;;;;;22.00;99.90;;;;;;5069641;28;19919;-73
2022/02/11 11:45:42;;;;;;;;;;;21.80;99.90;;;;;;5070026;28;19985;-73
2022/02/11 11:48:15;;;;;;;;;;;21.20;99.90;;;;;;5070264;28;19913;-73
2022/02/11 11:50:43;;;;;;;;;;;20.80;99.90;;;;;;5073735;28;19917;-74
2022/02/11 11:53:26;;;;;;;;;;;20.60;99.90;;;;;;5072915;28;19962;-74
2022/02/11 11:55:53;;;;;;;;;;;20.50;99.90;;;;;;5072956;28;19912;-73
2022/02/11 11:58:52;;;;;;;;;;;20.30;99.90;;;;;;5073373;28;20387;-73
2022/02/11 12:01:19;;;;;;;;;;;20.30;99.90;;;;;;5060854;28;19924;-72
2022/02/11 12:04:04;;;;;;;;;;;20.00;99.90;;;;;;5073320;28;19954;-73
2022/02/11 12:06:32;;;;;;;;;;;19.90;99.90;;;;;;5072942;28;19909;-73
2022/02/11 12:08:58;;;;;;;;;;;19.80;99.90;;;;;;5072750;28;19932;-74
2022/02/11 12:11:25;;;;;;;;;;;19.80;99.90;;;;;;5073211;28;19909;-74
2022/02/11 12:13:52;;;;;;;;;;;19.70;99.90;;;;;;5073036;28;19916;-74
2022/02/11 12:16:19;;;;;;;;;;;19.60;99.90;;;;;;5072918;28;19943;-75
2022/02/11 12:18:47;;;;;;;;;;;19.50;99.90;;;;;;5072862;28;19916;-74
2022/02/11 12:21:14;;;;;;;;;;;19.50;99.90;;;;;;5072258;28;19913;-75
2022/02/11 12:29:11;;;;;;;;;;;19.60;99.90;;;;;;5073041;28;20075;-73
2022/02/11 12:31:39;;;;;;;;;;;19.60;99.90;;;;;;5073054;28;19908;-74
2022/02/11 12:34:12;;;;;;;;;;;19.50;99.90;;;;;;5072761;28;19920;-74
2022/02/11 12:36:39;;;;;;;;;;;19.60;99.90;;;;;;5071932;28;20470;-73
2022/02/11 12:39:05;;;;;;;;;;;19.50;99.90;;;;;;5072664;28;19922;-74
2022/02/11 12:41:43;;;;;;;;;;;19.50;99.90;;;;;;5072662;28;19909;-73
2022/02/11 12:44:10;;;;;;;;;;;19.50;99.90;;;;;;5072593;28;19912;-74
2022/02/11 12:46:38;;;;;;;;;;;19.50;99.90;;;;;;5072854;28;19913;-75
2022/02/11 12:49:05;;;;;;;;;;;19.60;99.90;;;;;;5072246;28;20379;-72
2022/02/11 12:51:31;;;;;;;;;;;19.60;99.90;;;;;;5072046;28;19909;-73
2022/02/11 12:54:04;;;;;;;;;;;19.60;99.90;;;;;;5072172;28;20003;-73
2022/02/11 12:56:34;;;;;;;;;;;19.50;99.90;;;;;;5072408;28;19919;-74
2022/02/11 12:59:05;;;;;;;;;;;19.50;99.90;;;;;;5072127;28;19974;-75
2022/02/11 13:01:32;;;;;;;;;;;19.60;99.90;;;;;;5071871;28;19912;-73
2022/02/11 13:03:59;;;;;;;;;;;19.50;99.90;;;;;;5071984;28;19962;-74
2022/02/11 13:06:26;;;;;;;;;;;19.60;99.90;;;;;;5071663;28;20381;-73
2022/02/11 13:09:06;;;;;;;;;;;19.70;99.90;;;;;;5071954;28;19908;-76
2022/02/11 13:11:33;;;;;;;;;;;19.60;99.90;;;;;;5071835;28;19952;-72
2022/02/11 13:14:06;;;;;;;;;;;19.60;99.90;;;;;;5071461;28;20271;-72
2022/02/11 13:16:33;;;;;;;;;;;19.70;99.90;;;;;;5071701;28;19908;-72
2022/02/11 13:19:13;;;;;;;;;;;19.70;99.90;;;;;;5072029;28;20428;-73
2022/02/11 13:21:41;;;;;;;;;;;19.70;99.90;;;;;;5070775;28;19961;-73
2022/02/11 13:24:08;;;;;;;;;;;19.70;99.90;;;;;;5071662;28;19912;-72
2022/02/11 13:26:35;;;;;;;;;;;19.70;99.90;;;;;;5071353;28;19919;-73
2022/02/11 13:29:01;;;;;;;;;;;19.80;99.90;;;;;;5071692;28;19921;-72
2022/02/11 13:31:44;;;;;;;;;;;19.70;99.90;;;;;;5071735;28;19952;-73
2022/02/11 13:34:11;;;;;;;;;;;19.80;99.90;;;;;;5073045;28;20046;-74
2022/02/11 13:36:38;;;;;;;;;;;19.80;99.90;;;;;;5091910;28;19958;-74
2022/02/11 13:39:05;;;;;;;;;;;19.80;99.90;;;;;;5091823;28;19912;-72
2022/02/11 13:41:34;;;;;;;;;;;19.90;99.90;;;;;;5091901;28;20104;-72
2022/02/11 13:44:07;;;;;;;;;;;20.00;99.90;;;;;;5091637;28;19916;-72
2022/02/11 13:46:34;;;;;;;;;;;20.00;99.90;;;;;;5091885;28;19908;-72
2022/02/11 13:49:05;;;;;;;;;;;20.00;99.90;;;;;;5091515;28;19920;-72
2022/02/11 13:51:32;;;;;;;;;;;20.10;99.90;;;;;;5091533;28;19912;-72
2022/02/11 13:54:20;;;;;;;;;;;20.20;99.90;;;;;;5091183;28;19919;-72
2022/02/11 13:56:48;;;;;;;;;;;20.30;99.90;;;;;;5091437;28;19916;-72
2022/02/11 13:59:15;;;;;;;;;;;20.30;99.90;;;;;;5091349;28;19920;-72
2022/02/11 14:01:48;;;;;;;;;;;20.40;99.90;;;;;;5091161;28;19908;-73
2022/02/11 14:04:17;;;;;;;;;;;20.40;99.90;;;;;;5091529;28;20007;-72
2022/02/11 14:06:50;;;;;;;;;;;20.50;99.90;;;;;;5091569;28;19912;-73
2022/02/11 14:09:37;;;;;;;;;;;20.50;99.90;;;;;;5091142;28;19949;-72
2022/02/11 14:12:05;;;;;;;;;;;20.60;99.90;;;;;;5090553;28;19908;-73
2022/02/11 14:14:34;;;;;;;;;;;20.70;99.90;;;;;;5090846;28;19909;-72
2022/02/11 14:17:04;;;;;;;;;;;20.70;99.90;;;;;;5091205;28;19908;-72
2022/02/11 14:19:30;;;;;;;;;;;20.80;99.90;;;;;;5091214;28;19908;-72
2022/02/11 14:21:58;;;;;;;;;;;20.80;99.90;;;;;;5090792;28;19908;-72
2022/02/11 14:24:26;;;;;;;;;;;20.80;99.90;;;;;;5091349;28;20278;-72
2022/02/11 14:26:53;;;;;;;;;;;20.80;99.90;;;;;;5090745;28;20446;-72
2022/02/11 14:29:20;;;;;;;;;;;20.80;99.90;;;;;;5090918;28;19920;-73
2022/02/11 14:31:47;;;;;;;;;;;20.80;99.90;;;;;;5090757;28;20472;-72
2022/02/11 14:34:14;;;;;;;;;;;20.90;99.90;;;;;;5090937;28;19912;-75
2022/02/11 14:36:43;;;;;;;;;;;20.80;99.90;;;;;;5091003;28;19966;-72
2022/02/11 14:39:13;;;;;;;;;;;20.80;99.90;;;;;;5090770;28;20014;-72
2022/02/11 14:41:47;;;;;;;;;;;20.80;99.90;;;;;;5090837;28;19908;-73
2022/02/11 14:44:32;;;;;;;;;;;20.90;99.90;;;;;;5090741;28;19994;-72
2022/02/11 14:47:00;;;;;;;;;;;20.90;99.90;;;;;;5090997;28;19916;-72
2022/02/11 14:49:28;;;;;;;;;;;21.00;99.90;;;;;;5090902;28;20291;-72
2022/02/11 14:52:04;;;;;;;;;;;20.90;99.90;;;;;;5090441;28;20391;-72
2022/02/11 14:54:32;;;;;;;;;;;21.00;99.90;;;;;;5090590;28;19916;-72
2022/02/11 14:56:59;;;;;;;;;;;20.90;99.90;;;;;;5090705;28;19935;-72
2022/02/11 14:59:26;;;;;;;;;;;21.00;99.90;;;;;;5090527;28;19928;-73
2022/02/11 15:01:53;;;;;;;;;;;21.00;99.90;;;;;;5090372;28;19955;-72
2022/02/11 15:04:20;;;;;;;;;;;21.10;99.90;;;;;;5090592;28;19923;-72
2022/02/11 15:06:48;;;;;;;;;;;21.00;99.90;;;;;;5089857;28;20255;-72
2022/02/11 15:09:15;;;;;;;;;;;21.00;99.90;;;;;;5090387;28;20285;-73
2022/02/11 15:11:42;;;;;;;;;;;21.10;99.90;;;;;;5090422;28;20324;-72
2022/02/11 15:14:10;;;;;;;;;;;21.10;99.90;;;;;;5090359;28;19999;-72
2022/02/11 15:16:36;;;;;;;;;;;21.10;99.90;;;;;;5090571;28;20282;-72
2022/02/11 15:19:06;;;;;;;;;;;21.00;99.90;;;;;;5090293;28;19912;-72
2022/02/11 15:21:33;;;;;;;;;;;21.00;99.90;;;;;;5090489;28;19915;-73
2022/02/11 15:24:00;;;;;;;;;;;21.00;99.90;;;;;;5091981;28;19912;-71
2022/02/11 15:26:26;;;;;;;;;;;21.00;99.90;;;;;;5094433;28;20370;-72
2022/02/11 15:28:53;;;;;;;;;;;21.00;99.90;;;;;;5094288;28;20351;-72
2022/02/11 15:31:21;;;;;;;;;;;21.00;99.90;;;;;;5094425;28;19909;-72
2022/02/11 15:33:47;;;;;;;;;;;21.00;99.90;;;;;;5093819;28;19916;-72
2022/02/11 15:36:15;;;;;;;;;;;21.00;99.90;;;;;;5094375;28;19944;-72
2022/02/11 15:38:41;;;;;;;;;;;21.00;99.90;;;;;;5094028;28;20359;-73
2022/02/11 15:41:09;;;;;;;;;;;21.00;99.90;;;;;;5094300;28;19919;-72
2022/02/11 15:43:39;;;;;;;;;;;21.10;99.90;;;;;;5094150;28;19908;-72
2022/02/11 15:46:06;;;;;;;;;;;21.00;99.90;;;;;;5093445;28;19919;-72
2022/02/11 15:48:33;;;;;;;;;;;21.10;99.90;;;;;;5094070;28;19919;-72
2022/02/11 15:51:01;;;;;;;;;;;21.10;99.90;;;;;;5093896;28;19924;-72
2022/02/11 15:53:28;;;;;;;;;;;21.10;99.90;;;;;;5093698;28;20031;-72
2022/02/11 15:55:55;;;;;;;;;;;21.10;99.90;;;;;;5093756;28;20002;-72
2022/02/11 15:58:22;;;;;;;;;;;21.00;99.90;;;;;;5093412;28;20285;-72
2022/02/11 16:00:49;;;;;;;;;;;21.00;99.90;;;;;;5093700;28;19928;-72
2022/02/11 16:03:15;;;;;;;;;;;21.00;99.90;;;;;;5093994;28;20002;-72
2022/02/11 16:05:42;;;;;;;;;;;20.90;99.90;;;;;;5093855;28;20563;-72
2022/02/11 16:08:09;;;;;;;;;;;21.00;99.90;;;;;;5093391;28;19958;-71
2022/02/11 16:10:35;;;;;;;;;;;20.90;99.90;;;;;;5093459;28;19924;-71
2022/02/11 16:13:02;;;;;;;;;;;20.90;99.90;;;;;;5093224;28;19908;-72
2022/02/11 16:15:29;;;;;;;;;;;20.90;99.90;;;;;;5093393;28;19943;-73
2022/02/11 16:18:03;;;;;;;;;;;20.90;99.90;;;;;;5093252;28;19909;-72
2022/02/11 16:20:37;;;;;;;;;;;20.90;99.90;;;;;;5093363;28;19908;-72
2022/02/11 16:23:06;;;;;;;;;;;20.90;99.90;;;;;;5093301;28;20003;-73
2022/02/11 16:25:34;;;;;;;;;;;20.90;99.90;;;;;;5092932;28;19919;-72
2022/02/11 16:28:01;;;;;;;;;;;21.00;99.90;;;;;;5093117;28;19965;-72
2022/02/11 16:30:28;;;;;;;;;;;21.00;99.90;;;;;;5093272;28;19925;-72
2022/02/11 16:32:57;;;;;;;;;;;21.00;99.90;;;;;;5092996;28;20692;-73
2022/02/11 16:35:24;;;;;;;;;;;21.00;99.90;;;;;;5092556;28;20414;-72
2022/02/11 16:37:50;;;;;;;;;;;20.90;99.90;;;;;;5092550;28;19947;-73
2022/02/11 16:40:17;;;;;;;;;;;20.90;99.90;;;;;;5093217;28;20381;-73
2022/02/11 16:42:44;;;;;;;;;;;20.90;99.90;;;;;;5093109;28;19939;-72
2022/02/11 16:45:11;;;;;;;;;;;21.00;99.90;;;;;;5092950;28;19950;-73
2022/02/11 16:47:40;;;;;;;;;;;21.00;99.90;;;;;;5092950;28;19916;-73
2022/02/11 16:50:07;;;;;;;;;;;21.00;99.90;;;;;;5092335;28;20021;-72
2022/02/11 16:52:34;;;;;;;;;;;21.00;99.90;;;;;;5092753;28;19919;-72
2022/02/11 16:55:04;;;;;;;;;;;21.00;99.90;;;;;;5092788;28;19912;-72
2022/02/11 16:57:31;;;;;;;;;;;21.00;99.90;;;;;;5092773;28;19916;-73
2022/02/11 16:59:58;;;;;;;;;;;21.10;99.90;;;;;;5092295;28;19920;-73
2022/02/11 17:02:25;;;;;;;;;;;21.00;99.90;;;;;;5091639;28;19995;-72
2022/02/11 17:04:52;;;;;;;;;;;21.00;99.90;;;;;;5092334;28;19909;-73
2022/02/11 17:07:18;;;;;;;;;;;21.00;99.90;;;;;;5092473;28;19998;-73
2022/02/11 17:09:46;;;;;;;;;;;20.90;99.90;;;;;;5092481;28;19960;-72
2022/02/11 17:12:13;;;;;;;;;;;20.70;99.90;;;;;;5092466;28;19908;-72
2022/02/11 17:14:40;;;;;;;;;;;20.60;99.90;;;;;;5092340;28;19989;-72
2022/02/11 17:17:06;;;;;;;;;;;20.50;99.90;;;;;;5091994;28;20309;-71
2022/02/11 17:19:33;;;;;;;;;;;20.50;99.90;;;;;;5092234;28;19908;-72
2022/02/11 17:22:01;;;;;;;;;;;20.50;99.90;;;;;;5091916;28;19908;-72
2022/02/11 17:24:29;;;;;;;;;;;20.60;99.90;;;;;;5094420;28;19908;-72
2022/02/11 17:26:57;;;;;;;;;;;20.60;99.90;;;;;;5094279;28;19912;-73
2022/02/11 17:29:24;;;;;;;;;;;20.70;99.90;;;;;;5094046;28;20248;-74
2022/02/11 17:31:51;;;;;;;;;;;20.70;99.90;;;;;;5094022;28;19912;-72
2022/02/11 17:34:17;;;;;;;;;;;20.70;99.90;;;;;;5094010;28;20317;-73
2022/02/11 17:36:44;;;;;;;;;;;20.70;99.90;;;;;;5093752;28;19916;-73
2022/02/11 17:39:11;;;;;;;;;;;20.70;99.90;;;;;;5093886;28;20358;-72
2022/02/11 17:41:37;;;;;;;;;;;20.80;99.90;;;;;;5093831;28;19915;-74
2022/02/11 17:44:05;;;;;;;;;;;20.90;99.90;;;;;;5093730;28;20382;-73
2022/02/11 17:46:32;;;;;;;;;;;20.90;99.90;;;;;;5093044;28;19915;-72
2022/02/11 17:48:59;;;;;;;;;;;20.90;99.90;;;;;;5092582;28;20015;-72
2022/02/11 17:51:26;;;;;;;;;;;20.90;99.90;;;;;;5093562;28;19908;-72
2022/02/11 17:53:53;;;;;;;;;;;20.90;99.90;;;;;;5093521;28;20362;-72
2022/02/11 17:56:20;;;;;;;;;;;20.90;99.90;;;;;;5093479;28;20377;-73
2022/02/11 17:58:47;;;;;;;;;;;20.90;99.90;;;;;;5093287;28;19954;-73
2022/02/11 18:01:13;;;;;;;;;;;21.00;99.90;;;;;;5093638;28;20267;-74
2022/02/11 18:03:40;;;;;;;;;;;21.00;99.90;;;;;;5093377;28;19953;-73
2022/02/11 18:06:07;;;;;;;;;;;21.00;99.90;;;;;;5093152;28;19957;-73
2022/02/11 18:08:33;;;;;;;;;;;21.00;99.90;;;;;;5093510;28;19912;-74
2022/02/11 18:11:00;;;;;;;;;;;21.00;99.90;;;;;;5093252;28;20290;-74
2022/02/11 18:13:28;;;;;;;;;;;20.90;99.90;;;;;;5093321;28;19912;-74